createdAt,value
2019-03-11T00:00:02.617Z,16.37
2019-03-11T00:02:33.090Z,17.57
2019-03-11T00:05:03.599Z,16.90
2019-03-11T00:07:34.070Z,16.40
2019-03-11T00:10:04.648Z,20.07
2019-03-11T00:12:35.226Z,13.47
2019-03-11T00:15:06.049Z,13.80
2019-03-11T00:17:36.649Z,17.70
2019-03-11T00:20:07.428Z,16.40
2019-03-11T00:22:37.880Z,16.77
2019-03-11T00:25:08.594Z,15.53
2019-03-11T00:27:39.080Z,14.23
2019-03-11T00:30:10.296Z,20.03
2019-03-11T00:32:40.754Z,21.10
2019-03-11T00:35:11.421Z,24.27
2019-03-11T00:37:41.890Z,19.37
2019-03-11T00:40:12.607Z,27.43
2019-03-11T00:42:43.075Z,26.73
2019-03-11T00:45:13.869Z,20.90
2019-03-11T00:47:44.371Z,20.40
2019-03-11T00:50:15.488Z,23.27
2019-03-11T00:52:46.105Z,21.80
2019-03-11T00:55:16.630Z,23.20
2019-03-11T00:57:47.136Z,23.83
2019-03-11T01:00:31.265Z,26.87
2019-03-11T01:03:01.882Z,23.07
2019-03-11T01:05:32.426Z,19.03
2019-03-11T01:08:02.989Z,22.40
2019-03-11T01:10:33.601Z,22.07
2019-03-11T01:13:04.111Z,19.90
2019-03-11T01:15:34.567Z,21.97
2019-03-11T01:18:05.056Z,22.40
2019-03-11T01:20:35.556Z,23.50
2019-03-11T01:23:06.132Z,22.33
2019-03-11T01:25:36.630Z,19.57
2019-03-11T01:28:07.093Z,18.87
2019-03-11T01:30:37.604Z,21.27
2019-03-11T01:33:08.061Z,17.57
2019-03-11T01:35:38.518Z,23.17
2019-03-11T01:38:09.020Z,19.10
2019-03-11T01:40:39.621Z,19.10
2019-03-11T01:43:10.087Z,18.63
2019-03-11T01:45:40.592Z,21.70
2019-03-11T01:48:11.052Z,21.50
2019-03-11T01:50:41.562Z,22.67
2019-03-11T01:53:12.070Z,25.20
2019-03-11T01:55:42.587Z,15.83
2019-03-11T01:58:13.088Z,15.20
2019-03-11T02:00:43.556Z,15.63
2019-03-11T02:03:14.038Z,17.77
2019-03-11T02:05:44.550Z,16.03
2019-03-11T02:08:15.019Z,16.77
2019-03-11T02:10:45.525Z,17.43
2019-03-11T02:13:16.000Z,14.43
2019-03-11T02:15:46.511Z,13.87
2019-03-11T02:18:16.971Z,13.90
2019-03-11T02:20:47.535Z,12.90
2019-03-11T02:23:18.010Z,13.63
2019-03-11T02:25:48.501Z,14.83
2019-03-11T02:28:18.961Z,17.77
2019-03-11T02:30:49.491Z,17.23
2019-03-11T02:33:19.944Z,15.97
2019-03-11T02:35:50.443Z,14.83
2019-03-11T02:38:20.910Z,18.47
2019-03-11T02:40:51.403Z,15.77
2019-03-11T02:43:21.861Z,17.20
2019-03-11T02:45:52.422Z,17.97
2019-03-11T02:48:22.903Z,16.77
2019-03-11T02:50:53.360Z,16.43
2019-03-11T02:53:23.838Z,17.30
2019-03-11T02:55:54.344Z,16.80
2019-03-11T02:58:24.841Z,17.20
2019-03-11T03:01:14.836Z,14.70
2019-03-11T03:03:48.355Z,14.57
2019-03-11T03:06:18.874Z,12.47
2019-03-11T03:08:49.364Z,15.63
2019-03-11T03:11:19.835Z,15.77
2019-03-11T03:13:50.358Z,15.73
2019-03-11T03:16:20.856Z,17.80
2019-03-11T03:18:51.312Z,14.10
2019-03-11T03:21:21.812Z,16.50
2019-03-11T03:23:52.271Z,16.03
2019-03-11T03:26:22.767Z,11.53
2019-03-11T03:28:53.229Z,11.30
2019-03-11T03:31:23.711Z,10.63
2019-03-11T03:33:54.226Z,9.87
2019-03-11T03:36:24.666Z,10.17
2019-03-11T03:38:55.130Z,9.23
2019-03-11T03:41:25.631Z,8.60
2019-03-11T03:43:56.185Z,9.27
2019-03-11T03:46:26.699Z,9.53
2019-03-11T03:48:57.172Z,9.43
2019-03-11T03:51:27.673Z,13.37
2019-03-11T03:53:58.143Z,7.67
2019-03-11T03:56:28.751Z,7.53
2019-03-11T03:58:59.201Z,10.93
2019-03-11T04:01:31.301Z,8.87
2019-03-11T04:04:01.838Z,8.93
2019-03-11T04:06:32.300Z,8.37
2019-03-11T04:09:04.671Z,11.07
2019-03-11T04:11:35.268Z,7.73
2019-03-11T04:14:05.876Z,7.77
2019-03-11T04:16:36.479Z,10.10
2019-03-11T04:19:06.970Z,6.53
2019-03-11T04:21:37.458Z,6.57
2019-03-11T04:24:08.204Z,7.03
2019-03-11T04:26:38.793Z,8.77
2019-03-11T04:29:09.247Z,8.40
2019-03-11T04:31:39.848Z,7.03
2019-03-11T04:34:10.325Z,7.37
2019-03-11T04:36:40.770Z,9.83
2019-03-11T04:39:11.263Z,7.77
2019-03-11T04:41:41.715Z,6.87
2019-03-11T04:44:12.214Z,7.27
2019-03-11T04:46:42.671Z,6.20
2019-03-11T04:49:13.253Z,6.23
2019-03-11T04:51:43.721Z,6.03
2019-03-11T04:54:14.169Z,10.97
2019-03-11T04:56:44.699Z,6.67
2019-03-11T04:59:15.279Z,6.50
2019-03-11T05:01:45.745Z,5.97
2019-03-11T05:04:16.239Z,17.23
2019-03-11T05:06:46.690Z,6.83
2019-03-11T05:09:17.178Z,6.90
2019-03-11T05:11:47.672Z,8.53
2019-03-11T05:14:18.170Z,10.00
2019-03-11T05:16:48.630Z,7.03
2019-03-11T05:19:19.113Z,6.13
2019-03-11T05:21:49.575Z,8.20
2019-03-11T05:24:20.055Z,9.23
2019-03-11T05:26:50.516Z,9.67
2019-03-11T05:29:20.999Z,6.87
2019-03-11T05:31:51.418Z,6.97
2019-03-11T05:34:22.020Z,6.03
2019-03-11T05:36:52.479Z,7.23
2019-03-11T05:39:23.004Z,9.70
2019-03-11T05:41:53.516Z,5.13
2019-03-11T05:44:24.014Z,8.33
2019-03-11T05:46:54.468Z,9.83
2019-03-11T05:49:24.927Z,8.20
2019-03-11T05:51:55.390Z,11.23
2019-03-11T05:54:25.897Z,17.37
2019-03-11T05:56:58.963Z,12.90
2019-03-11T05:59:28.584Z,17.73
2019-03-11T06:01:59.186Z,10.37
2019-03-11T06:04:29.718Z,5.93
2019-03-11T06:07:00.219Z,5.10
2019-03-11T06:09:30.673Z,7.47
2019-03-11T06:12:01.185Z,13.57
2019-03-11T06:14:31.704Z,8.03
2019-03-11T06:17:02.166Z,7.27
2019-03-11T06:19:32.664Z,8.10
2019-03-11T06:22:12.979Z,10.47
2019-03-11T06:24:43.487Z,8.30
2019-03-11T06:27:13.995Z,7.37
2019-03-11T06:29:44.513Z,8.47
2019-03-11T06:32:15.166Z,8.90
2019-03-11T06:34:45.651Z,8.73
2019-03-11T06:37:16.130Z,11.13
2019-03-11T06:39:46.692Z,12.80
2019-03-11T06:42:17.164Z,10.50
2019-03-11T06:44:47.623Z,5.87
2019-03-11T06:47:18.164Z,6.43
2019-03-11T06:49:48.894Z,12.67
2019-03-11T06:52:19.406Z,6.80
2019-03-11T06:54:49.860Z,14.00
2019-03-11T06:57:20.355Z,8.80
2019-03-11T06:59:50.893Z,7.97
2019-03-11T07:02:21.418Z,8.43
2019-03-11T07:04:51.946Z,9.80
2019-03-11T07:07:22.460Z,15.13
2019-03-11T07:09:52.989Z,10.17
2019-03-11T07:12:23.517Z,10.10
2019-03-11T07:14:54.038Z,19.57
2019-03-11T07:17:24.529Z,18.33
2019-03-11T07:19:54.989Z,7.17
2019-03-11T07:22:25.518Z,16.20
2019-03-11T07:24:56.109Z,12.43
2019-03-11T07:27:27.732Z,14.33
2019-03-11T07:29:58.416Z,9.40
2019-03-11T07:32:28.892Z,10.20
2019-03-11T07:35:07.983Z,10.40
2019-03-11T07:37:31.630Z,17.40
2019-03-11T07:40:02.126Z,11.10
2019-03-11T07:42:32.747Z,9.53
2019-03-11T07:45:03.289Z,11.07
2019-03-11T07:47:33.742Z,18.70
2019-03-11T07:50:04.440Z,9.53
2019-03-11T07:52:34.948Z,12.60
2019-03-11T07:55:05.788Z,7.17
2019-03-11T07:57:36.509Z,7.90
2019-03-11T08:00:10.045Z,8.53
2019-03-11T08:02:40.570Z,7.10
2019-03-11T08:05:11.311Z,7.50
2019-03-11T08:07:41.954Z,4.60
2019-03-11T08:10:12.758Z,11.27
2019-03-11T08:12:43.248Z,6.97
2019-03-11T08:15:14.451Z,7.67
2019-03-11T08:17:45.172Z,6.80
2019-03-11T08:20:15.930Z,23.50
2019-03-11T08:22:46.444Z,9.43
2019-03-11T08:25:17.512Z,9.23
2019-03-11T08:27:48.006Z,7.40
2019-03-11T08:30:18.755Z,6.20
2019-03-11T08:32:49.255Z,5.17
2019-03-11T08:35:19.722Z,16.53
2019-03-11T08:37:50.470Z,9.37
2019-03-11T08:40:20.947Z,12.53
2019-03-11T08:42:51.511Z,4.97
2019-03-11T08:45:21.994Z,10.77
2019-03-11T08:47:52.615Z,8.93
2019-03-11T08:50:25.966Z,11.00
2019-03-11T08:52:56.732Z,6.67
2019-03-11T08:55:27.323Z,4.90
2019-03-11T08:57:57.789Z,8.43
2019-03-11T09:00:28.537Z,8.47
2019-03-11T09:02:59.040Z,12.70
2019-03-11T09:05:29.523Z,9.47
2019-03-11T09:08:00.164Z,8.53
2019-03-11T09:10:30.668Z,5.37
2019-03-11T09:13:01.182Z,7.17
2019-03-11T09:15:32.673Z,6.27
2019-03-11T09:18:03.242Z,7.00
2019-03-11T09:20:33.851Z,8.03
2019-03-11T09:23:04.490Z,5.33
2019-03-11T09:25:34.942Z,7.90
2019-03-11T09:28:05.707Z,6.07
2019-03-11T09:30:36.161Z,4.73
2019-03-11T09:33:08.464Z,10.97
2019-03-11T09:35:39.108Z,4.50
2019-03-11T09:38:09.571Z,4.07
2019-03-11T09:40:40.085Z,4.00
2019-03-11T09:43:10.574Z,4.60
2019-03-11T09:45:41.036Z,4.87
2019-03-11T09:48:11.572Z,7.07
2019-03-11T09:50:42.033Z,5.87
2019-03-11T09:53:12.641Z,5.97
2019-03-11T09:55:43.219Z,5.10
2019-03-11T09:58:13.836Z,3.53
2019-03-11T10:00:45.472Z,5.73
2019-03-11T10:03:16.060Z,3.73
2019-03-11T10:05:46.628Z,3.97
2019-03-11T10:08:17.085Z,3.77
2019-03-11T10:10:47.754Z,3.80
2019-03-11T10:13:18.322Z,7.03
2019-03-11T10:15:48.783Z,6.60
2019-03-11T10:18:19.304Z,14.37
2019-03-11T10:20:49.876Z,6.33
2019-03-11T10:23:28.431Z,10.40
2019-03-11T10:25:52.534Z,9.03
2019-03-11T10:28:23.040Z,8.73
2019-03-11T10:30:53.587Z,6.50
2019-03-11T10:33:24.103Z,13.13
2019-03-11T10:35:54.571Z,10.17
2019-03-11T10:38:25.153Z,4.63
2019-03-11T10:40:55.631Z,4.77
2019-03-11T10:43:26.162Z,4.37
2019-03-11T10:45:56.635Z,3.03
2019-03-11T10:48:36.666Z,7.87
2019-03-11T10:50:59.609Z,5.63
2019-03-11T10:53:30.255Z,6.57
2019-03-11T10:56:00.835Z,3.00
2019-03-11T10:58:31.389Z,2.80
2019-03-11T11:01:01.863Z,4.50
2019-03-11T11:03:32.595Z,4.97
2019-03-11T11:06:03.167Z,2.83
2019-03-11T11:08:33.634Z,2.87
2019-03-11T11:11:04.180Z,6.73
2019-03-11T11:13:34.651Z,3.80
2019-03-11T11:16:05.309Z,14.97
2019-03-11T11:18:35.904Z,4.67
2019-03-11T11:21:06.560Z,4.93
2019-03-11T11:23:37.184Z,3.53
2019-03-11T11:26:08.587Z,4.57
2019-03-11T11:28:39.167Z,3.00
2019-03-11T11:31:09.781Z,5.10
2019-03-11T11:33:40.260Z,3.50
2019-03-11T11:36:10.855Z,2.97
2019-03-11T11:38:41.373Z,4.10
2019-03-11T11:41:11.870Z,3.20
2019-03-11T11:43:42.330Z,4.90
2019-03-11T11:46:12.824Z,3.37
2019-03-11T11:48:43.318Z,3.53
2019-03-11T11:51:13.815Z,3.70
2019-03-11T11:53:44.303Z,7.57
2019-03-11T11:56:14.841Z,4.30
2019-03-11T11:58:45.394Z,3.70
2019-03-11T12:01:15.904Z,9.60
2019-03-11T12:03:46.501Z,3.73
2019-03-11T12:06:17.045Z,4.70
2019-03-11T12:08:47.539Z,3.53
2019-03-11T12:11:18.069Z,3.70
2019-03-11T12:13:48.584Z,4.60
2019-03-11T12:16:19.191Z,5.27
2019-03-11T12:18:49.690Z,3.07
2019-03-11T12:21:20.210Z,3.33
2019-03-11T12:23:50.864Z,2.93
2019-03-11T12:26:21.358Z,3.40
2019-03-11T12:28:51.845Z,3.73
2019-03-11T12:31:22.320Z,3.47
2019-03-11T12:33:52.901Z,3.43
2019-03-11T12:36:24.068Z,8.87
2019-03-11T12:38:54.599Z,5.03
2019-03-11T12:41:25.196Z,3.67
2019-03-11T12:43:55.664Z,4.13
2019-03-11T12:46:26.181Z,3.80
2019-03-11T12:48:57.750Z,4.33
2019-03-11T12:51:28.316Z,3.73
2019-03-11T12:53:58.770Z,3.67
2019-03-11T12:56:29.342Z,3.47
2019-03-11T12:58:59.852Z,4.13
2019-03-11T13:01:30.341Z,8.90
2019-03-11T13:04:00.848Z,7.53
2019-03-11T13:06:31.413Z,6.63
2019-03-11T13:09:01.907Z,11.30
2019-03-11T13:11:32.424Z,11.43
2019-03-11T13:14:02.884Z,13.33
2019-03-11T13:16:33.600Z,5.17
2019-03-11T13:19:13.040Z,7.30
2019-03-11T13:21:39.352Z,3.30
2019-03-11T13:24:09.871Z,4.60
2019-03-11T13:26:40.410Z,20.53
2019-03-11T13:29:11.038Z,3.70
2019-03-11T13:31:41.567Z,3.50
2019-03-11T13:34:12.001Z,4.37
2019-03-11T13:36:42.504Z,3.47
2019-03-11T13:39:13.197Z,3.43
2019-03-11T13:41:43.853Z,3.60
2019-03-11T13:44:14.418Z,3.63
2019-03-11T13:46:45.056Z,4.60
2019-03-11T13:49:15.771Z,3.93
2019-03-11T13:51:46.331Z,4.57
2019-03-11T13:54:17.024Z,3.07
2019-03-11T13:56:47.499Z,4.10
2019-03-11T13:59:18.179Z,5.40
2019-03-11T14:01:48.761Z,3.30
2019-03-11T14:04:19.242Z,3.63
2019-03-11T14:06:49.905Z,4.23
2019-03-11T14:09:20.518Z,5.27
2019-03-11T14:11:50.977Z,4.10
2019-03-11T14:14:21.683Z,4.30
2019-03-11T14:16:52.171Z,5.13
2019-03-11T14:19:22.772Z,4.93
2019-03-11T14:21:55.301Z,3.77
2019-03-11T14:24:25.435Z,4.00
2019-03-11T14:26:56.141Z,3.50
2019-03-11T14:29:28.013Z,4.73
2019-03-11T14:31:58.559Z,4.77
2019-03-11T14:34:29.040Z,6.90
2019-03-11T14:36:59.506Z,7.60
2019-03-11T14:39:30.001Z,6.13
2019-03-11T14:42:00.511Z,4.43
2019-03-11T14:44:31.003Z,3.40
2019-03-11T14:47:01.479Z,3.83
2019-03-11T14:49:31.981Z,4.97
2019-03-11T14:52:02.486Z,6.33
2019-03-11T14:54:33.087Z,3.03
2019-03-11T14:57:03.610Z,3.30
2019-03-11T14:59:34.265Z,3.60
2019-03-11T15:02:04.879Z,3.40
2019-03-11T15:04:35.492Z,4.10
2019-03-11T15:07:05.962Z,9.00
2019-03-11T15:09:36.494Z,5.13
2019-03-11T15:12:06.953Z,5.13
2019-03-11T15:14:37.428Z,5.03
2019-03-11T15:17:08.002Z,6.10
2019-03-11T15:19:38.514Z,4.00
2019-03-11T15:22:09.052Z,4.70
2019-03-11T15:24:39.733Z,5.37
2019-03-11T15:27:10.333Z,5.43
2019-03-11T15:29:41.079Z,7.17
2019-03-11T15:32:11.759Z,8.00
2019-03-11T15:34:42.258Z,8.83
2019-03-11T15:37:12.914Z,7.33
2019-03-11T15:39:43.485Z,6.77
2019-03-11T15:42:13.987Z,4.47
2019-03-11T15:44:44.551Z,7.67
2019-03-11T15:47:15.019Z,8.83
2019-03-11T15:49:45.543Z,4.60
2019-03-11T15:52:16.047Z,7.80
2019-03-11T15:54:46.509Z,4.97
2019-03-11T15:57:17.022Z,7.07
2019-03-11T15:59:47.475Z,5.50
2019-03-11T16:02:18.082Z,5.73
2019-03-11T16:04:48.552Z,4.67
2019-03-11T16:07:19.054Z,6.07
2019-03-11T16:09:49.517Z,3.83
2019-03-11T16:12:19.977Z,7.97
2019-03-11T16:14:50.475Z,4.30
2019-03-11T16:17:20.949Z,6.73
2019-03-11T16:19:51.609Z,5.60
2019-03-11T16:22:25.187Z,4.80
2019-03-11T16:24:54.239Z,4.00
2019-03-11T16:27:24.689Z,6.33
2019-03-11T16:29:55.154Z,6.20
2019-03-11T16:32:25.626Z,5.87
2019-03-11T16:34:56.149Z,4.40
2019-03-11T16:37:26.639Z,6.07
2019-03-11T16:39:58.622Z,4.27
2019-03-11T16:42:29.285Z,4.03
2019-03-11T16:44:59.845Z,5.60
2019-03-11T16:47:30.348Z,6.33
2019-03-11T16:50:00.840Z,7.30
2019-03-11T16:52:31.427Z,7.13
2019-03-11T16:55:01.882Z,6.07
2019-03-11T16:57:32.379Z,5.23
2019-03-11T17:00:03.010Z,4.93
2019-03-11T17:02:33.470Z,7.97
2019-03-11T17:05:04.092Z,6.43
2019-03-11T17:07:34.552Z,8.70
2019-03-11T17:10:05.503Z,9.67
2019-03-11T17:12:36.019Z,7.67
2019-03-11T17:15:08.005Z,7.77
2019-03-11T17:17:38.563Z,6.20
2019-03-11T17:20:10.294Z,10.67
2019-03-11T17:22:40.771Z,11.50
2019-03-11T17:25:11.945Z,9.17
2019-03-11T17:27:42.621Z,6.83
2019-03-11T17:30:15.112Z,6.63
2019-03-11T17:32:45.675Z,12.70
2019-03-11T17:35:17.144Z,12.50
2019-03-11T17:37:47.845Z,14.60
2019-03-11T17:40:18.565Z,12.07
2019-03-11T17:42:49.369Z,7.47
2019-03-11T17:45:19.926Z,11.30
2019-03-11T17:47:50.586Z,8.80
2019-03-11T17:50:21.144Z,8.30
2019-03-11T17:52:51.851Z,7.77
2019-03-11T17:55:22.513Z,11.30
2019-03-11T17:57:53.108Z,8.67
2019-03-11T18:00:26.222Z,9.93
2019-03-11T18:02:56.975Z,9.73
2019-03-11T18:05:27.429Z,9.87
2019-03-11T18:07:57.932Z,9.53
2019-03-11T18:10:28.593Z,12.07
2019-03-11T18:12:59.305Z,11.10
2019-03-11T18:15:29.752Z,10.67
2019-03-11T18:18:00.373Z,8.70
2019-03-11T18:20:30.896Z,8.87
2019-03-11T18:23:01.488Z,7.60
2019-03-11T18:25:31.949Z,11.90
2019-03-11T18:28:02.421Z,12.73
2019-03-11T18:30:33.053Z,14.30
2019-03-11T18:33:03.582Z,11.83
2019-03-11T18:35:34.373Z,18.33
2019-03-11T18:38:05.218Z,10.80
2019-03-11T18:40:35.673Z,10.10
2019-03-11T18:43:06.302Z,10.40
2019-03-11T18:45:36.763Z,9.67
2019-03-11T18:48:07.322Z,9.77
2019-03-11T18:50:37.822Z,9.93
2019-03-11T18:53:08.420Z,13.47
2019-03-11T18:55:38.911Z,13.53
2019-03-11T18:58:09.499Z,9.77
2019-03-11T19:00:40.036Z,12.43
2019-03-11T19:03:10.674Z,12.30
2019-03-11T19:05:41.276Z,10.87
2019-03-11T19:08:11.923Z,11.17
2019-03-11T19:10:42.411Z,11.60
2019-03-11T19:13:13.124Z,12.50
2019-03-11T19:15:43.686Z,15.93
2019-03-11T19:18:14.154Z,15.23
2019-03-11T19:20:44.668Z,15.13
2019-03-11T19:23:15.153Z,10.40
2019-03-11T19:25:45.702Z,9.60
2019-03-11T19:28:16.304Z,9.53
2019-03-11T19:30:46.836Z,9.00
2019-03-11T19:33:17.376Z,8.60
2019-03-11T19:35:47.968Z,10.00
2019-03-11T19:38:18.458Z,8.50
2019-03-11T19:40:48.907Z,8.67
2019-03-11T19:43:19.453Z,7.93
2019-03-11T19:45:49.924Z,7.97
2019-03-11T19:48:20.524Z,9.37
2019-03-11T19:50:51.041Z,10.83
2019-03-11T19:53:21.549Z,9.53
2019-03-11T19:55:52.042Z,8.80
2019-03-11T19:58:22.577Z,9.50
2019-03-11T20:00:53.164Z,16.67
2019-03-11T20:03:30.102Z,12.03
2019-03-11T20:05:55.966Z,12.53
2019-03-11T20:08:26.623Z,13.87
2019-03-11T20:10:57.078Z,13.23
2019-03-11T20:13:27.606Z,10.87
2019-03-11T20:15:58.121Z,14.03
2019-03-11T20:18:28.582Z,13.03
2019-03-11T20:20:59.069Z,14.07
2019-03-11T20:23:29.720Z,10.60
2019-03-11T20:26:00.351Z,13.50
2019-03-11T20:28:30.947Z,15.27
2019-03-11T20:31:01.492Z,17.33
2019-03-11T20:33:31.962Z,15.77
2019-03-11T20:36:02.477Z,15.33
2019-03-11T20:38:32.943Z,17.33
2019-03-11T20:41:03.489Z,17.43
2019-03-11T20:43:34.038Z,12.33
2019-03-11T20:46:04.593Z,16.40
2019-03-11T20:48:35.155Z,18.60
2019-03-11T20:51:05.797Z,11.57
2019-03-11T20:53:36.331Z,11.57
2019-03-11T20:56:06.780Z,10.27
2019-03-11T20:58:37.296Z,12.30
2019-03-11T21:01:07.829Z,12.40
2019-03-11T21:03:38.300Z,9.40
2019-03-11T21:06:09.061Z,6.57
2019-03-11T21:08:39.540Z,7.43
2019-03-11T21:11:10.130Z,8.63
2019-03-11T21:13:40.606Z,6.80
2019-03-11T21:16:11.064Z,7.03
2019-03-11T21:18:41.549Z,8.03
2019-03-11T21:21:12.088Z,7.87
2019-03-11T21:23:42.651Z,9.73
2019-03-11T21:26:13.155Z,8.40
2019-03-11T21:28:43.731Z,7.20
2019-03-11T21:31:14.306Z,8.87
2019-03-11T21:33:57.609Z,6.93
2019-03-11T21:36:17.033Z,7.00
2019-03-11T21:38:47.510Z,7.70
2019-03-11T21:41:18.055Z,8.47
2019-03-11T21:43:48.543Z,6.53
2019-03-11T21:46:19.072Z,10.43
2019-03-11T21:48:49.604Z,6.87
2019-03-11T21:51:20.103Z,8.07
2019-03-11T21:53:50.566Z,6.57
2019-03-11T21:56:21.336Z,10.57
2019-03-11T21:58:51.836Z,7.73
2019-03-11T22:01:22.447Z,7.17
2019-03-11T22:03:52.939Z,10.83
2019-03-11T22:06:23.426Z,7.57
2019-03-11T22:08:53.912Z,8.03
2019-03-11T22:11:24.400Z,9.67
2019-03-11T22:13:54.845Z,7.10
2019-03-11T22:16:25.338Z,7.17
2019-03-11T22:18:55.791Z,7.67
2019-03-11T22:21:26.255Z,7.30
2019-03-11T22:23:56.728Z,7.70
2019-03-11T22:26:27.201Z,7.87
2019-03-11T22:28:57.649Z,7.87
2019-03-11T22:31:28.142Z,7.50
2019-03-11T22:33:58.596Z,7.23
2019-03-11T22:36:31.362Z,7.60
2019-03-11T22:39:01.870Z,7.20
2019-03-11T22:41:33.483Z,7.57
2019-03-11T22:44:03.943Z,7.17
2019-03-11T22:46:34.475Z,9.30
2019-03-11T22:49:04.971Z,8.07
2019-03-11T22:51:35.454Z,7.40
2019-03-11T22:54:05.907Z,7.03
2019-03-11T22:56:36.399Z,6.70
2019-03-11T22:59:06.893Z,10.87
2019-03-11T23:01:37.799Z,6.80
2019-03-11T23:04:08.243Z,7.83
2019-03-11T23:06:38.733Z,6.13
2019-03-11T23:09:10.591Z,7.10
2019-03-11T23:11:41.196Z,8.13
2019-03-11T23:14:11.653Z,7.63
2019-03-11T23:16:42.145Z,8.43
2019-03-11T23:19:12.599Z,7.10
2019-03-11T23:21:43.099Z,6.80
2019-03-11T23:24:13.592Z,9.33
2019-03-11T23:26:44.183Z,7.07
2019-03-11T23:29:14.647Z,7.73
2019-03-11T23:31:45.149Z,7.67
2019-03-11T23:34:15.632Z,7.17
2019-03-11T23:36:46.084Z,6.80
2019-03-11T23:39:16.569Z,6.70
2019-03-11T23:41:47.022Z,6.30
2019-03-11T23:44:17.600Z,6.20
2019-03-11T23:46:48.048Z,6.33
2019-03-11T23:49:18.539Z,6.07
2019-03-11T23:51:49.008Z,6.17
2019-03-11T23:54:19.503Z,5.80
2019-03-11T23:56:50.112Z,5.13
2019-03-11T23:59:20.602Z,6.70
